createdAt,value
2018-08-28T00:02:10.063Z,6.50
2018-08-28T00:04:39.392Z,6.40
2018-08-28T00:07:08.604Z,6.30
2018-08-28T00:09:37.663Z,6.93
2018-08-28T00:12:07.043Z,6.73
2018-08-28T00:14:36.332Z,6.87
2018-08-28T00:17:05.718Z,7.07
2018-08-28T00:19:35.003Z,6.57
2018-08-28T00:22:04.216Z,6.67
2018-08-28T00:24:33.570Z,6.23
2018-08-28T00:27:02.812Z,6.77
2018-08-28T00:29:31.864Z,6.67
2018-08-28T00:32:01.151Z,7.07
2018-08-28T00:34:30.363Z,7.13
2018-08-28T00:36:59.695Z,6.60
2018-08-28T00:39:28.948Z,6.43
2018-08-28T00:41:58.259Z,6.83
2018-08-28T00:44:27.100Z,6.93
2018-08-28T00:46:56.121Z,6.83
2018-08-28T00:49:25.402Z,6.80
2018-08-28T00:51:54.702Z,6.77
2018-08-28T00:54:24.470Z,6.30
2018-08-28T00:56:53.638Z,7.03
2018-08-28T00:59:22.869Z,6.70
2018-08-28T01:01:52.304Z,6.47
2018-08-28T01:04:21.489Z,6.87
2018-08-28T01:06:51.028Z,7.13
2018-08-28T01:09:20.416Z,6.40
2018-08-28T01:11:49.663Z,7.20
2018-08-28T01:14:18.954Z,6.67
2018-08-28T01:16:48.332Z,6.93
2018-08-28T01:19:17.586Z,7.40
2018-08-28T01:21:46.547Z,6.40
2018-08-28T01:24:15.347Z,7.30
2018-08-28T01:26:44.344Z,6.97
2018-08-28T01:29:13.270Z,7.13
2018-08-28T01:31:42.179Z,7.80
2018-08-28T01:34:11.132Z,8.13
2018-08-28T01:36:40.081Z,7.77
2018-08-28T01:39:09.455Z,7.10
2018-08-28T01:41:38.501Z,7.23
2018-08-28T01:44:07.295Z,7.40
2018-08-28T01:46:37.369Z,7.67
2018-08-28T01:49:06.641Z,7.17
2018-08-28T01:51:35.929Z,7.53
2018-08-28T01:54:05.031Z,7.73
2018-08-28T01:56:34.352Z,7.40
2018-08-28T01:59:03.575Z,7.23
2018-08-28T02:01:32.810Z,7.00
2018-08-28T02:04:02.009Z,7.23
2018-08-28T02:06:31.033Z,7.83
2018-08-28T02:09:00.259Z,8.57
2018-08-28T02:11:29.460Z,7.60
2018-08-28T02:13:58.665Z,8.00
2018-08-28T02:16:27.524Z,8.60
2018-08-28T02:18:56.490Z,7.90
2018-08-28T02:21:25.869Z,7.17
2018-08-28T02:23:54.735Z,7.40
2018-08-28T02:26:23.923Z,7.90
2018-08-28T02:28:53.298Z,7.93
2018-08-28T02:31:22.158Z,7.60
2018-08-28T02:33:51.128Z,7.67
2018-08-28T02:36:20.111Z,8.10
2018-08-28T02:38:49.041Z,7.97
2018-08-28T02:41:17.915Z,7.67
2018-08-28T02:43:46.828Z,8.33
2018-08-28T02:46:15.646Z,8.43
2018-08-28T02:48:44.900Z,7.13
2018-08-28T02:51:14.045Z,8.20
2018-08-28T02:53:43.244Z,8.10
2018-08-28T02:56:12.324Z,8.00
2018-08-28T02:58:41.246Z,7.40
2018-08-28T03:01:10.303Z,7.57
2018-08-28T03:03:39.506Z,8.00
2018-08-28T03:06:09.030Z,8.40
2018-08-28T03:08:38.373Z,7.67
2018-08-28T03:11:07.371Z,8.13
2018-08-28T03:13:36.352Z,7.63
2018-08-28T03:16:05.318Z,8.40
2018-08-28T03:18:34.129Z,8.27
2018-08-28T03:21:03.408Z,7.93
2018-08-28T03:23:32.470Z,7.67
2018-08-28T03:26:01.684Z,7.93
2018-08-28T03:28:30.984Z,7.87
2018-08-28T03:31:00.236Z,7.90
2018-08-28T03:33:29.128Z,7.63
2018-08-28T03:35:58.536Z,7.83
2018-08-28T03:38:28.058Z,7.73
2018-08-28T03:40:57.070Z,8.17
2018-08-28T03:43:26.053Z,7.77
2018-08-28T03:45:55.299Z,8.63
2018-08-28T03:48:24.577Z,7.87
2018-08-28T03:50:53.634Z,7.80
2018-08-28T03:53:23.063Z,7.83
2018-08-28T03:55:51.951Z,7.37
2018-08-28T03:58:21.277Z,8.20
2018-08-28T04:00:50.492Z,8.13
2018-08-28T04:03:19.703Z,7.90
2018-08-28T04:05:48.608Z,7.60
2018-08-28T04:08:17.592Z,7.90
2018-08-28T04:10:46.507Z,8.40
2018-08-28T04:13:15.642Z,7.67
2018-08-28T04:15:44.703Z,8.07
2018-08-28T04:18:13.684Z,8.20
2018-08-28T04:20:42.528Z,8.67
2018-08-28T04:23:11.785Z,8.03
2018-08-28T04:25:40.691Z,8.57
2018-08-28T04:28:09.568Z,7.70
2018-08-28T04:30:38.641Z,8.10
2018-08-28T04:33:08.028Z,8.20
2018-08-28T04:35:37.157Z,8.33
2018-08-28T04:38:06.424Z,7.73
2018-08-28T04:40:35.613Z,8.33
2018-08-28T04:43:04.868Z,8.27
2018-08-28T04:45:34.028Z,7.90
2018-08-28T04:48:03.072Z,7.73
2018-08-28T04:50:31.901Z,8.03
2018-08-28T04:53:00.790Z,7.80
2018-08-28T04:55:30.276Z,8.27
2018-08-28T04:57:59.147Z,8.20
2018-08-28T05:00:28.320Z,7.13
2018-08-28T05:02:57.167Z,7.87
2018-08-28T05:05:25.963Z,7.73
2018-08-28T05:07:55.420Z,7.30
2018-08-28T05:10:24.308Z,7.73
2018-08-28T05:12:53.237Z,7.20
2018-08-28T05:15:22.200Z,8.13
2018-08-28T05:17:51.087Z,7.37
2018-08-28T05:20:20.127Z,7.43
2018-08-28T05:22:49.209Z,7.50
2018-08-28T05:25:18.513Z,7.57
2018-08-28T05:27:47.561Z,7.70
2018-08-28T05:30:16.998Z,7.23
2018-08-28T05:32:46.377Z,6.87
2018-08-28T05:35:15.797Z,7.57
2018-08-28T05:37:44.725Z,7.53
2018-08-28T05:40:13.552Z,6.87
2018-08-28T05:42:42.482Z,7.37
2018-08-28T05:45:11.542Z,6.30
2018-08-28T05:47:40.530Z,7.27
2018-08-28T05:50:09.513Z,7.10
2018-08-28T05:52:38.422Z,7.63
2018-08-28T05:55:07.596Z,6.60
2018-08-28T05:57:36.572Z,7.03
2018-08-28T06:00:05.548Z,7.53
2018-08-28T06:02:34.864Z,7.50
2018-08-28T06:05:04.013Z,8.20
2018-08-28T06:07:32.988Z,7.03
2018-08-28T06:10:01.912Z,7.40
2018-08-28T06:12:30.841Z,6.63
2018-08-28T06:14:59.845Z,6.90
2018-08-28T06:17:30.156Z,7.73
2018-08-28T06:19:59.516Z,7.67
2018-08-28T06:22:28.506Z,6.90
2018-08-28T06:24:57.398Z,7.03
2018-08-28T06:27:26.805Z,6.80
2018-08-28T06:29:55.857Z,6.80
2018-08-28T06:32:24.840Z,6.80
2018-08-28T06:34:53.644Z,8.17
2018-08-28T06:37:22.703Z,6.87
2018-08-28T06:39:51.516Z,6.43
2018-08-28T06:42:20.544Z,7.63
2018-08-28T06:44:49.443Z,7.03
2018-08-28T06:47:18.264Z,7.00
2018-08-28T06:49:47.221Z,7.90
2018-08-28T06:52:16.221Z,7.90
2018-08-28T06:54:45.238Z,6.40
2018-08-28T06:57:14.247Z,8.73
2018-08-28T06:59:44.260Z,6.60
2018-08-28T07:02:13.637Z,7.50
2018-08-28T07:04:42.760Z,6.87
2018-08-28T07:07:12.108Z,6.73
2018-08-28T07:09:41.066Z,6.67
2018-08-28T07:12:09.874Z,6.63
2018-08-28T07:14:38.845Z,6.80
2018-08-28T07:17:07.971Z,7.10
2018-08-28T07:19:36.904Z,6.83
2018-08-28T07:22:05.898Z,6.73
2018-08-28T07:24:35.023Z,6.47
2018-08-28T07:27:04.102Z,6.43
2018-08-28T07:29:32.977Z,5.70
2018-08-28T07:32:01.949Z,6.37
2018-08-28T07:34:31.112Z,6.63
2018-08-28T07:37:00.109Z,6.63
2018-08-28T07:39:29.096Z,6.60
2018-08-28T07:41:58.051Z,5.87
2018-08-28T07:44:27.076Z,6.87
2018-08-28T07:46:56.052Z,6.63
2018-08-28T07:49:24.851Z,6.20
2018-08-28T07:51:53.752Z,6.40
2018-08-28T07:54:22.677Z,6.00
2018-08-28T07:56:52.117Z,6.10
2018-08-28T07:59:21.132Z,5.80
2018-08-28T08:01:49.975Z,6.13
2018-08-28T08:04:18.938Z,5.83
2018-08-28T08:06:47.853Z,5.67
2018-08-28T08:09:16.689Z,6.03
2018-08-28T08:11:45.761Z,5.43
2018-08-28T08:14:14.694Z,5.70
2018-08-28T08:16:43.764Z,6.30
2018-08-28T08:19:25.139Z,6.27
2018-08-28T08:21:54.633Z,6.00
2018-08-28T08:24:24.375Z,5.97
2018-08-28T08:26:54.925Z,6.70
2018-08-28T08:29:26.145Z,6.40
2018-08-28T08:34:34.992Z,6.80
2018-08-28T08:37:04.884Z,6.73
2018-08-28T08:39:38.084Z,6.13
2018-08-28T08:42:07.634Z,6.00
2018-08-28T08:44:36.965Z,6.93
2018-08-28T08:47:05.912Z,6.63
2018-08-28T08:49:34.775Z,6.63
2018-08-28T08:52:03.964Z,6.03
2018-08-28T08:54:33.392Z,6.17
2018-08-28T08:57:02.456Z,5.77
2018-08-28T08:59:31.336Z,5.47
2018-08-28T09:02:00.317Z,5.80
2018-08-28T09:04:29.221Z,5.70
2018-08-28T09:06:58.515Z,5.23
2018-08-28T09:09:28.620Z,5.10
2018-08-28T09:11:58.092Z,5.33
2018-08-28T09:14:27.369Z,5.40
2018-08-28T09:16:56.631Z,6.20
2018-08-28T09:19:26.072Z,6.50
2018-08-28T09:21:55.166Z,6.30
2018-08-28T09:24:24.125Z,6.00
2018-08-28T09:26:53.332Z,5.83
2018-08-28T09:29:22.237Z,5.80
2018-08-28T09:31:51.299Z,6.00
2018-08-28T09:34:20.208Z,6.27
2018-08-28T09:36:49.296Z,6.23
2018-08-28T09:39:18.388Z,7.13
2018-08-28T09:41:47.528Z,6.67
2018-08-28T09:44:16.459Z,6.13
2018-08-28T09:46:45.552Z,5.50
2018-08-28T09:49:14.352Z,5.97
2018-08-28T09:51:43.523Z,5.50
2018-08-28T09:54:12.484Z,5.47
2018-08-28T09:56:41.467Z,5.97
2018-08-28T09:59:10.311Z,6.50
2018-08-28T10:01:42.763Z,5.57
2018-08-28T10:04:12.799Z,5.37
2018-08-28T10:06:41.762Z,5.47
2018-08-28T10:09:15.201Z,5.73
2018-08-28T10:11:44.253Z,5.90
2018-08-28T10:14:13.684Z,6.20
2018-08-28T10:16:42.980Z,6.20
2018-08-28T10:19:11.872Z,6.77
2018-08-28T10:21:40.741Z,7.00
2018-08-28T10:24:10.065Z,6.47
2018-08-28T10:26:39.279Z,7.10
2018-08-28T10:29:08.133Z,6.13
2018-08-28T10:31:37.560Z,6.03
2018-08-28T10:34:06.590Z,5.50
2018-08-28T10:36:35.943Z,5.97
2018-08-28T10:39:06.825Z,4.70
2018-08-28T10:41:35.857Z,4.53
2018-08-28T10:44:05.098Z,4.33
2018-08-28T10:46:34.031Z,4.47
2018-08-28T10:49:03.317Z,3.93
2018-08-28T10:51:32.256Z,3.73
2018-08-28T10:54:01.100Z,4.37
2018-08-28T10:56:29.929Z,3.90
2018-08-28T10:58:58.841Z,4.00
2018-08-28T11:01:27.643Z,4.17
2018-08-28T11:03:56.544Z,4.73
2018-08-28T11:06:25.717Z,4.57
2018-08-28T11:08:54.681Z,4.50
2018-08-28T11:11:24.888Z,4.23
2018-08-28T11:13:53.696Z,5.47
2018-08-28T11:16:22.552Z,5.00
2018-08-28T11:18:51.456Z,4.03
2018-08-28T11:21:20.304Z,4.70
2018-08-28T11:23:49.198Z,4.90
2018-08-28T11:26:18.280Z,5.00
2018-08-28T11:28:47.993Z,4.63
2018-08-28T11:31:17.236Z,4.30
2018-08-28T11:33:46.157Z,4.13
2018-08-28T11:36:15.112Z,4.40
2018-08-28T11:38:44.092Z,4.30
2018-08-28T11:41:12.941Z,4.57
2018-08-28T11:43:41.803Z,4.30
2018-08-28T11:46:10.680Z,4.60
2018-08-28T11:48:39.555Z,4.77
2018-08-28T11:51:08.451Z,5.20
2018-08-28T11:53:37.303Z,5.13
2018-08-28T11:56:06.419Z,4.97
2018-08-28T11:58:35.354Z,5.37
2018-08-28T12:01:04.285Z,5.43
2018-08-28T12:03:33.196Z,6.10
2018-08-28T12:06:02.257Z,5.20
2018-08-28T12:08:31.521Z,5.97
2018-08-28T12:11:00.381Z,6.03
2018-08-28T12:13:29.481Z,5.87
2018-08-28T12:15:58.352Z,6.43
2018-08-28T12:18:27.406Z,6.73
2018-08-28T12:20:56.691Z,6.87
2018-08-28T12:23:25.528Z,6.97
2018-08-28T12:25:54.348Z,7.00
2018-08-28T12:28:23.417Z,6.73
2018-08-28T12:30:52.277Z,7.07
2018-08-28T12:33:21.725Z,7.53
2018-08-28T12:35:50.657Z,7.10
2018-08-28T12:38:19.556Z,7.17
2018-08-28T12:40:49.222Z,7.90
2018-08-28T12:43:18.428Z,7.30
2018-08-28T12:45:47.252Z,6.67
2018-08-28T12:48:16.285Z,7.50
2018-08-28T12:50:45.232Z,7.47
2018-08-28T12:53:14.096Z,8.63
2018-08-28T12:55:43.338Z,7.37
2018-08-28T12:58:12.160Z,7.73
2018-08-28T13:00:41.076Z,7.67
2018-08-28T13:03:10.006Z,8.00
2018-08-28T13:05:38.876Z,8.80
2018-08-28T13:08:07.915Z,8.33
2018-08-28T13:10:36.860Z,8.50
2018-08-28T13:13:06.052Z,8.23
2018-08-28T13:15:34.974Z,8.17
2018-08-28T13:18:03.880Z,9.00
2018-08-28T13:20:32.787Z,8.67
2018-08-28T13:23:01.956Z,9.03
2018-08-28T13:25:30.946Z,9.50
2018-08-28T13:27:59.796Z,9.00
2018-08-28T13:30:28.842Z,10.27
2018-08-28T13:32:57.961Z,9.57
2018-08-28T13:35:27.183Z,9.43
2018-08-28T13:37:56.063Z,9.37
2018-08-28T13:40:25.106Z,9.67
2018-08-28T13:42:53.940Z,8.10
2018-08-28T13:45:22.924Z,9.27
2018-08-28T13:47:51.886Z,8.57
2018-08-28T13:50:21.029Z,9.33
2018-08-28T13:52:50.013Z,8.93
2018-08-28T13:55:19.277Z,9.30
2018-08-28T13:57:48.164Z,9.07
2018-08-28T14:00:17.132Z,9.27
2018-08-28T14:02:46.696Z,9.77
2018-08-28T14:05:15.946Z,9.77
2018-08-28T14:07:45.038Z,9.87
2018-08-28T14:10:14.569Z,10.07
2018-08-28T14:12:43.859Z,8.93
2018-08-28T14:15:13.263Z,9.63
2018-08-28T14:17:42.613Z,10.27
2018-08-28T14:20:12.037Z,9.53
2018-08-28T14:22:40.970Z,9.53
2018-08-28T14:25:10.224Z,8.90
2018-08-28T14:27:39.836Z,9.67
2018-08-28T14:30:08.705Z,9.40
2018-08-28T14:32:37.697Z,10.03
2018-08-28T14:35:06.717Z,9.67
2018-08-28T14:37:35.801Z,10.00
2018-08-28T14:40:05.016Z,10.30
2018-08-28T14:42:34.245Z,10.07
2018-08-28T14:45:03.464Z,10.97
2018-08-28T14:47:33.044Z,9.93
2018-08-28T14:50:02.152Z,9.53
2018-08-28T14:52:31.228Z,9.23
2018-08-28T14:55:00.384Z,10.73
2018-08-28T14:57:29.416Z,10.63
2018-08-28T14:59:58.266Z,10.33
2018-08-28T15:02:27.227Z,10.33
2018-08-28T15:04:56.157Z,10.27
2018-08-28T15:07:25.072Z,9.67
2018-08-28T15:09:53.957Z,9.90
2018-08-28T15:12:22.879Z,10.83
2018-08-28T15:14:52.154Z,11.13
2018-08-28T15:17:21.340Z,10.90
2018-08-28T15:19:50.597Z,10.23
2018-08-28T15:22:19.471Z,10.17
2018-08-28T15:24:48.632Z,10.20
2018-08-28T15:27:17.832Z,11.17
2018-08-28T15:29:47.122Z,11.23
2018-08-28T15:32:16.247Z,10.73
2018-08-28T15:34:45.322Z,9.80
2018-08-28T15:37:14.184Z,10.47
2018-08-28T15:39:43.335Z,10.50
2018-08-28T15:42:12.219Z,9.87
2018-08-28T15:44:41.207Z,10.30
2018-08-28T15:47:10.105Z,10.80
2018-08-28T15:49:38.992Z,10.73
2018-08-28T15:52:07.876Z,11.27
2018-08-28T15:54:37.249Z,10.10
2018-08-28T15:57:06.596Z,11.10
2018-08-28T15:59:35.700Z,10.70
2018-08-28T16:02:05.619Z,11.23
2018-08-28T16:04:34.633Z,10.93
2018-08-28T16:07:03.808Z,11.03
2018-08-28T16:09:32.793Z,10.83
2018-08-28T16:12:02.013Z,11.23
2018-08-28T16:14:30.868Z,11.23
2018-08-28T16:16:59.773Z,11.03
2018-08-28T16:19:28.589Z,11.43
2018-08-28T16:21:59.902Z,11.60
2018-08-28T16:24:28.792Z,11.90
2018-08-28T16:26:57.883Z,11.43
2018-08-28T16:29:26.688Z,11.50
2018-08-28T16:31:56.009Z,10.70
2018-08-28T16:34:25.265Z,11.77
2018-08-28T16:36:54.241Z,11.50
2018-08-28T16:39:23.536Z,10.90
2018-08-28T16:41:53.377Z,11.53
2018-08-28T16:44:22.296Z,11.47
2018-08-28T16:46:51.480Z,11.83
2018-08-28T16:49:20.660Z,11.10
2018-08-28T16:51:49.836Z,11.70
2018-08-28T16:54:19.064Z,11.20
2018-08-28T16:56:48.048Z,11.63
2018-08-28T16:59:17.000Z,11.27
2018-08-28T17:01:46.152Z,11.53
2018-08-28T17:04:15.302Z,12.23
2018-08-28T17:06:44.525Z,11.63
2018-08-28T17:09:13.411Z,11.97
2018-08-28T17:11:42.663Z,11.47
2018-08-28T17:14:11.698Z,11.63
2018-08-28T17:16:40.503Z,11.13
2018-08-28T17:19:09.526Z,10.63
2018-08-28T17:21:38.593Z,11.40
2018-08-28T17:24:07.440Z,11.87
2018-08-28T17:26:36.367Z,11.73
2018-08-28T17:29:05.336Z,12.40
2018-08-28T17:31:34.248Z,11.03
2018-08-28T17:34:03.172Z,11.40
2018-08-28T17:36:32.151Z,11.27
2018-08-28T17:39:01.096Z,10.63
2018-08-28T17:41:30.053Z,11.53
2018-08-28T17:43:58.934Z,12.13
2018-08-28T17:46:27.960Z,11.20
2018-08-28T17:48:57.066Z,11.97
2018-08-28T17:51:26.240Z,11.53
2018-08-28T17:53:55.477Z,11.90
2018-08-28T17:56:25.085Z,12.37
2018-08-28T17:58:54.044Z,11.87
2018-08-28T18:01:22.942Z,12.53
2018-08-28T18:03:51.943Z,11.13
2018-08-28T18:06:20.862Z,11.60
2018-08-28T18:08:49.813Z,12.37
2018-08-28T18:11:18.705Z,12.10
2018-08-28T18:13:47.671Z,11.70
2018-08-28T18:16:16.696Z,12.90
2018-08-28T18:18:45.699Z,12.57
2018-08-28T18:21:14.726Z,12.03
2018-08-28T18:23:43.780Z,12.53
2018-08-28T18:26:12.713Z,12.97
2018-08-28T18:28:42.299Z,12.70
2018-08-28T18:31:11.254Z,12.07
2018-08-28T18:33:40.220Z,12.87
2018-08-28T18:36:09.141Z,12.23
2018-08-28T18:38:38.060Z,13.00
2018-08-28T18:41:07.061Z,12.23
2018-08-28T18:43:35.931Z,13.50
2018-08-28T18:46:04.780Z,12.63
2018-08-28T18:48:33.667Z,12.63
2018-08-28T18:51:02.511Z,11.83
2018-08-28T18:53:31.409Z,12.77
2018-08-28T18:56:00.406Z,12.73
2018-08-28T18:58:29.237Z,12.23
2018-08-28T19:00:58.200Z,12.50
2018-08-28T19:03:27.085Z,12.60
2018-08-28T19:05:56.132Z,12.43
2018-08-28T19:08:25.307Z,12.90
2018-08-28T19:10:54.121Z,12.67
2018-08-28T19:13:23.150Z,12.23
2018-08-28T19:15:51.959Z,12.43
2018-08-28T19:18:20.780Z,12.47
2018-08-28T19:20:49.719Z,12.57
2018-08-28T19:23:19.297Z,12.37
2018-08-28T19:25:50.437Z,13.03
2018-08-28T19:28:19.864Z,12.63
2018-08-28T19:30:48.824Z,12.20
2018-08-28T19:33:18.056Z,12.77
2018-08-28T19:35:47.547Z,12.83
2018-08-28T19:38:16.741Z,12.33
2018-08-28T19:40:45.933Z,12.23
2018-08-28T19:43:15.216Z,13.53
2018-08-28T19:45:44.632Z,12.17
2018-08-28T19:48:13.894Z,11.60
2018-08-28T19:50:43.291Z,11.57
2018-08-28T19:53:12.517Z,11.67
2018-08-28T19:55:41.844Z,11.53
2018-08-28T19:58:10.945Z,11.60
2018-08-28T20:00:39.804Z,11.50
2018-08-28T20:03:09.080Z,12.60
2018-08-28T20:05:38.264Z,11.43
2018-08-28T20:08:07.217Z,12.63
2018-08-28T20:10:36.439Z,11.80
2018-08-28T20:13:08.879Z,11.63
2018-08-28T20:15:41.481Z,12.10
2018-08-28T20:18:10.395Z,11.50
2018-08-28T20:20:39.531Z,12.37
2018-08-28T20:23:08.816Z,11.93
2018-08-28T20:25:38.378Z,11.43
2018-08-28T20:28:07.183Z,11.07
2018-08-28T20:30:36.361Z,11.70
2018-08-28T20:33:05.584Z,11.73
2018-08-28T20:35:34.733Z,11.80
2018-08-28T20:38:03.996Z,11.97
2018-08-28T20:40:32.864Z,12.13
2018-08-28T20:43:01.997Z,11.70
2018-08-28T20:45:31.297Z,11.40
2018-08-28T20:48:00.558Z,12.17
2018-08-28T20:50:29.892Z,11.10
2018-08-28T20:52:58.995Z,11.70
2018-08-28T20:55:28.117Z,11.43
2018-08-28T20:57:57.181Z,11.23
2018-08-28T21:00:26.200Z,11.37
2018-08-28T21:02:55.400Z,11.47
2018-08-28T21:05:29.853Z,10.97
2018-08-28T21:08:00.579Z,10.80
2018-08-28T21:10:30.421Z,12.20
2018-08-28T21:12:59.843Z,10.80
2018-08-28T21:15:28.716Z,10.63
2018-08-28T21:17:58.012Z,10.73
2018-08-28T21:20:26.969Z,11.03
2018-08-28T21:22:55.912Z,11.37
2018-08-28T21:25:25.244Z,11.63
2018-08-28T21:27:54.210Z,10.70
2018-08-28T21:30:23.135Z,11.73
2018-08-28T21:32:52.192Z,13.23
2018-08-28T21:35:22.399Z,10.73
2018-08-28T21:37:51.667Z,11.10
2018-08-28T21:40:20.567Z,10.10
2018-08-28T21:42:49.391Z,10.70
2018-08-28T21:45:18.257Z,10.73
2018-08-28T21:47:47.717Z,10.37
2018-08-28T21:50:16.685Z,10.20
2018-08-28T21:52:46.480Z,10.80
2018-08-28T21:55:15.363Z,10.20
2018-08-28T21:57:44.304Z,10.60
2018-08-28T22:00:13.591Z,11.13
2018-08-28T22:02:42.518Z,10.47
2018-08-28T22:05:11.504Z,10.37
2018-08-28T22:07:41.349Z,10.47
2018-08-28T22:10:10.682Z,11.63
2018-08-28T22:12:39.684Z,10.47
2018-08-28T22:15:13.260Z,11.10
2018-08-28T22:17:42.937Z,10.43
2018-08-28T22:20:11.902Z,10.73
2018-08-28T22:22:40.723Z,10.33
2018-08-28T22:25:10.221Z,10.83
2018-08-28T22:27:39.662Z,11.17
2018-08-28T22:30:09.490Z,10.50
2018-08-28T22:32:38.672Z,10.77
2018-08-28T22:35:07.671Z,11.10
2018-08-28T22:37:36.674Z,11.10
2018-08-28T22:40:06.993Z,10.23
2018-08-28T22:42:35.932Z,10.43
2018-08-28T22:45:05.324Z,10.70
2018-08-28T22:47:34.644Z,10.33
2018-08-28T22:50:03.920Z,9.87
2018-08-28T22:52:32.911Z,10.57
2018-08-28T22:55:01.883Z,10.33
2018-08-28T22:57:30.760Z,10.90
2018-08-28T22:59:59.980Z,10.87
2018-08-28T23:02:28.915Z,10.60
2018-08-28T23:04:58.272Z,10.97
2018-08-28T23:07:27.145Z,16.13
2018-08-28T23:09:56.285Z,11.50
2018-08-28T23:12:25.730Z,10.20
2018-08-28T23:14:54.725Z,10.77
2018-08-28T23:17:23.590Z,9.93
2018-08-28T23:19:52.832Z,9.17
2018-08-28T23:22:22.004Z,10.47
2018-08-28T23:24:51.753Z,10.03
2018-08-28T23:27:20.581Z,10.23
2018-08-28T23:29:49.612Z,10.40
2018-08-28T23:32:18.544Z,10.17
2018-08-28T23:34:47.827Z,10.70
2018-08-28T23:37:16.745Z,10.33
2018-08-28T23:39:45.971Z,10.90
2018-08-28T23:42:15.148Z,10.17
2018-08-28T23:44:44.210Z,10.23
2018-08-28T23:47:13.132Z,10.43
2018-08-28T23:49:41.941Z,10.10
2018-08-28T23:52:10.868Z,10.00
2018-08-28T23:54:40.075Z,9.97
2018-08-28T23:57:09.041Z,10.10
2018-08-28T23:59:38.287Z,9.93
